Hendron, Kentucky
Current Conditions -  °F | °C
As of 2:53 PM on Tuesday 21 Oct 2014 (Local Time) from KPAH Reporting Station
Clear Clear  
Wind Chill: 71°   Ceiling: Unl
Heat Index: 71°   Visibility: 10mi
Dew Point: 47°   Wind: 7mph
Humidity: 42%   Direction: 360°N
Pressure: 30.06"   Gusts: NA
Location:  37.0331°N, 88.716°W
Report Text: KPAH 211953Z 36006KT 10SM CLR 22/08 A3006 RMK AO2 SLP176 T02170083
Loading
Personal Weather Stations






























Interactive Weather Map
Tropical Storm Tracking
New forecast layout! Learn more

10-Day Weather Forecast

Advertisements
Track Severe Weather on mobile